Time;durP1;ratioP1;P1;durP2;ratioP2;P2;SDS_P1;SDS_P2;PMS_P1;PMS_P2;Temp;Humidity;BMP_temperature;BMP_pressure;BME280_temperature;BME280_humidity;BME280_pressure;Samples;Min_cycle;Max_cycle;Signal;HPM_P1;HPM_P2
2023/09/06 00:01:13;;;;;;;4.47;3.65;;;14.00;99.90;;;;;;10455424;28;20191;-95
2023/09/06 00:06:19;;;;;;;8.20;6.30;;;13.90;99.90;;;;;;10494413;28;20214;-96
2023/09/06 00:11:21;;;;;;;6.07;5.47;;;14.10;99.90;;;;;;10466015;28;20575;-95
2023/09/06 00:16:24;;;;;;;11.20;6.05;;;13.80;99.90;;;;;;10453394;28;20247;-95
2023/09/06 00:21:27;;;;;;;6.20;4.93;;;14.00;99.90;;;;;;10451850;28;20203;-95
2023/09/06 00:26:30;;;;;;;7.20;6.10;;;14.00;99.90;;;;;;10452624;28;20221;-95
2023/09/06 00:31:36;;;;;;;9.40;6.80;;;13.80;99.90;;;;;;10453192;28;20241;-95
2023/09/06 00:36:38;;;;;;;9.23;5.45;;;13.70;99.90;;;;;;10467419;28;20222;-95
2023/09/06 00:41:41;;;;;;;9.15;5.70;;;13.80;99.90;;;;;;10451702;28;20256;-94
2023/09/06 00:46:44;;;;;;;6.80;4.75;;;13.70;99.90;;;;;;10450839;28;20620;-95
2023/09/06 00:51:47;;;;;;;6.57;5.88;;;13.60;99.90;;;;;;10449822;28;20238;-96
2023/09/06 00:56:49;;;;;;;6.28;5.68;;;13.70;99.90;;;;;;10451860;28;20262;-93
2023/09/06 01:01:55;;;;;;;6.72;5.50;;;13.50;99.90;;;;;;10455084;28;20199;-95
2023/09/06 01:07:00;;;;;;;9.00;5.72;;;13.60;99.90;;;;;;10434652;28;20273;-95
2023/09/06 01:12:03;;;;;;;5.60;5.00;;;13.40;99.90;;;;;;10484962;28;20206;-95
2023/09/06 01:17:10;;;;;;;6.07;3.63;;;13.50;99.90;;;;;;10493515;28;20583;-96
2023/09/06 01:22:28;;;;;;;5.82;5.07;;;13.50;99.90;;;;;;10459226;28;20705;-96
2023/09/06 01:27:31;;;;;;;10.45;6.57;;;13.40;99.90;;;;;;10470642;28;20202;-94
2023/09/06 01:32:34;;;;;;;11.05;5.30;;;13.20;99.90;;;;;;10451905;28;20637;-95
2023/09/06 01:37:37;;;;;;;8.35;6.35;;;13.10;99.90;;;;;;10458478;28;20680;-94
2023/09/06 01:42:40;;;;;;;7.10;4.70;;;13.30;99.90;;;;;;10458145;28;20574;-96
2023/09/06 01:47:46;;;;;;;5.45;4.72;;;13.30;99.90;;;;;;10458418;28;20203;-94
2023/09/06 01:52:49;;;;;;;6.22;3.90;;;13.20;99.90;;;;;;10458145;28;20280;-95
2023/09/06 01:57:52;;;;;;;6.68;5.60;;;13.40;99.90;;;;;;10463430;28;20264;-95
2023/09/06 02:02:55;;;;;;;6.28;5.53;;;13.20;99.90;;;;;;10461683;28;20275;-94
2023/09/06 02:07:58;;;;;;;5.60;4.90;;;13.40;99.90;;;;;;10456178;28;20257;-95
2023/09/06 02:13:01;;;;;;;8.27;5.45;;;13.50;99.90;;;;;;10456119;28;20556;-94
2023/09/06 02:18:04;;;;;;;15.70;5.05;;;13.60;99.90;;;;;;10473654;28;20261;-94
2023/09/06 02:23:07;;;;;;;5.80;5.03;;;13.20;99.90;;;;;;10490614;28;20203;-93
2023/09/06 02:28:10;;;;;;;8.38;5.60;;;13.20;99.90;;;;;;10497576;28;20202;-94
2023/09/06 02:33:16;;;;;;;9.38;5.43;;;13.10;99.90;;;;;;10458560;28;20284;-94
2023/09/06 02:38:18;;;;;;;7.72;6.22;;;13.00;99.90;;;;;;10454829;28;20624;-95
2023/09/06 02:43:22;;;;;;;9.13;5.57;;;12.80;99.90;;;;;;10456475;28;20195;-94
2023/09/06 02:48:27;;;;;;;7.75;5.72;;;12.90;99.90;;;;;;10456688;28;20245;-94
2023/09/06 02:53:31;;;;;;;9.35;5.28;;;13.10;99.90;;;;;;10456035;28;20574;-94
2023/09/06 02:58:37;;;;;;;6.22;5.30;;;12.90;99.90;;;;;;10454559;28;20272;-94
2023/09/06 03:03:42;;;;;;;11.63;5.72;;;13.00;99.90;;;;;;10455509;28;20187;-94
2023/09/06 03:08:47;;;;;;;6.38;5.70;;;12.80;99.90;;;;;;10456231;28;20248;-93
2023/09/06 03:13:55;;;;;;;8.40;5.85;;;12.70;99.90;;;;;;10456228;28;20203;-94
2023/09/06 03:18:58;;;;;;;6.80;5.05;;;12.70;99.90;;;;;;10458965;28;20288;-96
2023/09/06 03:24:00;;;;;;;9.80;6.50;;;12.90;99.90;;;;;;10495931;28;20240;-95
2023/09/06 03:29:10;;;;;;;7.63;5.22;;;12.70;99.90;;;;;;10498249;28;20202;-96
2023/09/06 03:34:15;;;;;;;8.48;5.68;;;12.70;99.90;;;;;;10462316;28;20237;-95
2023/09/06 03:39:21;;;;;;;11.27;5.55;;;12.60;99.90;;;;;;10493167;28;20287;-95
2023/09/06 03:44:27;;;;;;;8.45;6.07;;;12.70;99.90;;;;;;10443478;28;20206;-96
2023/09/06 03:49:30;;;;;;;5.15;4.57;;;12.40;99.90;;;;;;10455836;28;20647;-95
2023/09/06 03:54:34;;;;;;;8.45;5.70;;;12.60;99.90;;;;;;10451236;28;20202;-95
2023/09/06 03:59:37;;;;;;;8.80;5.30;;;12.60;99.90;;;;;;10449402;28;20227;-96
2023/09/06 04:04:41;;;;;;;8.88;6.00;;;12.50;99.90;;;;;;10449636;28;20233;-94
2023/09/06 04:09:44;;;;;;;8.95;6.13;;;12.30;99.90;;;;;;10453393;28;20196;-95
2023/09/06 04:14:47;;;;;;;8.80;5.05;;;12.40;99.90;;;;;;10481857;28;20171;-95
2023/09/06 04:19:50;;;;;;;5.57;4.60;;;12.60;99.90;;;;;;10520565;28;20218;-95
2023/09/06 04:24:53;;;;;;;7.32;4.85;;;12.60;99.90;;;;;;10503877;28;20225;-95
2023/09/06 04:29:55;;;;;;;5.82;4.38;;;12.70;99.90;;;;;;10500892;28;20213;-94
2023/09/06 04:34:58;;;;;;;8.40;5.47;;;12.80;99.90;;;;;;10546432;28;20194;-93
2023/09/06 04:40:03;;;;;;;6.18;5.57;;;13.20;99.90;;;;;;10530513;28;20223;-93
2023/09/06 04:45:09;;;;;;;8.85;5.68;;;13.00;99.90;;;;;;10487086;28;20217;-95
2023/09/06 04:50:13;;;;;;;10.73;6.78;;;12.80;99.90;;;;;;10520849;28;20210;-93
2023/09/06 04:55:19;;;;;;;13.50;8.68;;;12.80;99.90;;;;;;10517494;28;20205;-88
2023/09/06 05:00:24;;;;;;;8.63;6.93;;;12.70;99.90;;;;;;10505401;28;20215;-87
2023/09/06 05:05:27;;;;;;;20.02;8.00;;;13.30;99.90;;;;;;10544519;28;20212;-87
2023/09/06 05:10:39;;;;;;;17.38;7.43;;;13.20;99.90;;;;;;10525995;28;20203;-87
2023/09/06 05:15:42;;;;;;;7.40;6.38;;;13.00;99.90;;;;;;10504879;28;20179;-86
2023/09/06 05:20:46;;;;;;;14.55;6.97;;;13.20;99.90;;;;;;10502497;28;20234;-87
2023/09/06 05:25:52;;;;;;;17.33;6.60;;;13.20;99.90;;;;;;10501986;28;20265;-87
2023/09/06 05:31:20;;;;;;;10.75;6.65;;;13.30;99.90;;;;;;10497535;28;20182;-87
2023/09/06 05:36:24;;;;;;;13.00;8.00;;;13.50;99.90;;;;;;10509861;28;20245;-87
2023/09/06 05:41:28;;;;;;;13.10;6.78;;;13.80;99.90;;;;;;10501083;28;20214;-87
2023/09/06 05:46:32;;;;;;;11.80;7.65;;;14.10;99.90;;;;;;10516078;28;20201;-86
2023/09/06 05:51:45;;;;;;;10.82;8.55;;;14.50;99.90;;;;;;10501128;28;20250;-87
2023/09/06 05:56:48;;;;;;;19.58;11.30;;;14.70;99.90;;;;;;10509318;28;20209;-86
2023/09/06 06:01:51;;;;;;;19.48;9.65;;;14.80;99.90;;;;;;10544000;28;20225;-86
2023/09/06 06:06:54;;;;;;;22.10;13.45;;;14.90;99.90;;;;;;10543590;28;20187;-86
2023/09/06 06:11:57;;;;;;;6.70;5.50;;;15.20;99.90;;;;;;10541662;28;20253;-86
2023/09/06 06:17:00;;;;;;;11.52;8.30;;;15.50;99.90;;;;;;10540394;28;20221;-86
2023/09/06 06:22:03;;;;;;;13.60;9.68;;;15.70;99.90;;;;;;10475667;28;20224;-86
2023/09/06 06:27:06;;;;;;;6.53;5.93;;;15.90;99.90;;;;;;10514828;28;20187;-86
2023/09/06 06:32:09;;;;;;;17.50;10.98;;;16.10;99.90;;;;;;10551608;28;20198;-86
2023/09/06 06:37:12;;;;;;;5.38;4.30;;;16.30;99.90;;;;;;10528989;28;20239;-87
2023/09/06 06:42:14;;;;;;;14.23;11.82;;;16.50;99.90;;;;;;10480704;28;20180;-86
2023/09/06 06:47:21;;;;;;;8.23;5.93;;;16.80;99.90;;;;;;10483338;28;20183;-86
2023/09/06 06:52:24;;;;;;;9.75;7.80;;;17.00;99.90;;;;;;10483420;28;20262;-86
2023/09/06 06:57:27;;;;;;;13.60;10.95;;;17.10;99.90;;;;;;10467092;28;20206;-87
2023/09/06 07:02:29;;;;;;;9.43;6.63;;;17.30;99.90;;;;;;10466686;28;20180;-86
2023/09/06 07:07:32;;;;;;;12.70;9.43;;;17.40;99.90;;;;;;10467131;28;20210;-86
2023/09/06 07:12:35;;;;;;;14.63;12.63;;;17.60;99.90;;;;;;10476254;28;20205;-86
2023/09/06 07:17:38;;;;;;;13.02;8.25;;;17.80;99.90;;;;;;10510907;28;20240;-86
2023/09/06 07:22:41;;;;;;;5.50;4.85;;;18.00;99.90;;;;;;10510119;28;20198;-86
2023/09/06 07:27:43;;;;;;;9.20;8.23;;;18.20;99.90;;;;;;10511326;28;20175;-86
2023/09/06 07:32:46;;;;;;;12.00;8.23;;;18.50;99.90;;;;;;10510821;28;20183;-86
2023/09/06 07:37:48;;;;;;;9.77;7.63;;;18.70;99.90;;;;;;10510066;28;20195;-86
2023/09/06 07:42:52;;;;;;;10.50;6.97;;;18.90;99.90;;;;;;10510496;28;20183;-86
2023/09/06 07:47:54;;;;;;;20.27;8.77;;;19.20;99.90;;;;;;10509530;28;20203;-86
2023/09/06 07:52:57;;;;;;;12.52;7.03;;;19.40;99.90;;;;;;10509815;28;20203;-87
2023/09/06 07:57:59;;;;;;;5.32;3.85;;;19.60;99.90;;;;;;10509631;28;20249;-86
2023/09/06 08:03:05;;;;;;;8.80;6.60;;;19.90;99.80;;;;;;10509067;28;20179;-86
2023/09/06 08:08:10;;;;;;;8.15;6.05;;;20.10;98.40;;;;;;10509256;28;20183;-86
2023/09/06 08:13:12;;;;;;;11.70;8.18;;;20.30;96.70;;;;;;10508735;28;20208;-86
2023/09/06 08:18:15;;;;;;;9.70;8.10;;;20.50;96.40;;;;;;10508812;28;20225;-86
2023/09/06 08:23:17;;;;;;;5.22;4.43;;;20.80;96.70;;;;;;10508531;28;20218;-87
2023/09/06 08:28:20;;;;;;;7.72;6.93;;;21.00;95.90;;;;;;10508154;28;20187;-86
2023/09/06 08:33:23;;;;;;;13.02;8.27;;;21.10;94.10;;;;;;10507902;28;20175;-86
2023/09/06 08:38:26;;;;;;;7.10;6.40;;;21.30;93.10;;;;;;10508019;28;20218;-86
2023/09/06 08:43:35;;;;;;;14.20;7.63;;;21.50;94.40;;;;;;10507256;28;20240;-87
2023/09/06 08:48:38;;;;;;;10.43;8.02;;;21.70;93.70;;;;;;10507387;28;20195;-86
2023/09/06 08:53:43;;;;;;;9.48;8.13;;;21.90;94.10;;;;;;10506602;28;20241;-87
2023/09/06 08:58:46;;;;;;;4.85;4.35;;;22.00;94.60;;;;;;10507167;28;20215;-86
2023/09/06 09:03:48;;;;;;;12.52;7.57;;;22.20;94.70;;;;;;10507348;28;20175;-87
2023/09/06 09:08:52;;;;;;;6.68;5.70;;;22.40;96.20;;;;;;10507539;28;20179;-87
2023/09/06 09:13:56;;;;;;;9.80;7.20;;;22.50;96.80;;;;;;10506508;28;20213;-86
2023/09/06 09:19:03;;;;;;;5.80;4.65;;;22.60;96.40;;;;;;10489702;28;20242;-86
2023/09/06 09:24:06;;;;;;;4.80;4.38;;;22.70;97.50;;;;;;10507299;28;20182;-86
2023/09/06 09:29:12;;;;;;;4.18;3.40;;;22.80;98.60;;;;;;10507334;28;20197;-86
2023/09/06 09:34:16;;;;;;;9.48;5.43;;;22.90;98.90;;;;;;10474982;28;20195;-86
2023/09/06 09:39:24;;;;;;;5.25;4.75;;;23.00;99.90;;;;;;10461938;28;20265;-86
2023/09/06 09:44:27;;;;;;;11.85;8.45;;;23.20;99.90;;;;;;10459366;28;20199;-86
2023/09/06 09:49:30;;;;;;;4.82;3.50;;;23.20;99.90;;;;;;10471011;28;20219;-85
2023/09/06 09:54:34;;;;;;;6.00;4.53;;;23.30;99.90;;;;;;10467137;28;20245;-86
2023/09/06 09:59:38;;;;;;;5.70;4.35;;;23.50;99.90;;;;;;10466772;28;20219;-86
2023/09/06 10:04:42;;;;;;;8.18;5.07;;;23.50;99.90;;;;;;10469716;28;20274;-86
2023/09/06 10:09:47;;;;;;;5.68;5.13;;;23.60;99.90;;;;;;10468791;28;20195;-86
2023/09/06 10:14:50;;;;;;;4.43;4.03;;;23.70;99.90;;;;;;10466122;28;20207;-86
2023/09/06 10:19:53;;;;;;;5.57;4.05;;;23.70;99.90;;;;;;10464993;28;20245;-86
2023/09/06 10:25:07;;;;;;;5.82;3.95;;;23.80;99.90;;;;;;10464484;28;20206;-86
2023/09/06 10:30:11;;;;;;;8.32;4.75;;;23.90;99.90;;;;;;10463096;28;20230;-86
2023/09/06 10:35:20;;;;;;;6.50;3.88;;;23.90;99.90;;;;;;10462985;28;20199;-86
2023/09/06 10:40:24;;;;;;;6.30;4.72;;;23.90;99.90;;;;;;10462650;28;20231;-86
2023/09/06 10:45:27;;;;;;;5.05;3.88;;;24.00;99.90;;;;;;10463928;28;20207;-86
2023/09/06 10:50:30;;;;;;;6.13;4.47;;;24.00;99.90;;;;;;10462275;28;20276;-86
2023/09/06 10:55:52;;;;;;;5.55;4.07;;;24.10;99.90;;;;;;10460434;28;20667;-86
2023/09/06 11:01:18;;;;;;;3.67;3.38;;;24.10;99.90;;;;;;10464645;28;20215;-86
2023/09/06 11:06:24;;;;;;;19.13;4.47;;;24.20;99.90;;;;;;10444210;28;20211;-86
2023/09/06 11:11:26;;;;;;;6.30;3.50;;;24.20;99.90;;;;;;10461344;28;20206;-87
2023/09/06 11:16:29;;;;;;;30.40;5.60;;;24.20;99.90;;;;;;10460558;28;20199;-86
2023/09/06 11:21:32;;;;;;;4.68;3.95;;;24.20;99.90;;;;;;10460726;28;20219;-86
2023/09/06 11:26:35;;;;;;;5.28;3.85;;;24.20;99.90;;;;;;10461775;28;20225;-87
2023/09/06 11:31:39;;;;;;;6.55;3.97;;;24.20;99.90;;;;;;10458537;28;20207;-87
2023/09/06 11:36:42;;;;;;;9.90;3.80;;;24.30;99.90;;;;;;10455647;28;20571;-86
2023/09/06 11:41:45;;;;;;;6.28;4.30;;;24.30;99.90;;;;;;10455076;28;20308;-86
2023/09/06 11:46:48;;;;;;;5.13;3.72;;;24.30;99.90;;;;;;10452909;28;20629;-86
2023/09/06 11:51:53;;;;;;;5.50;3.67;;;24.30;99.90;;;;;;10453093;28;20269;-86
2023/09/06 11:56:57;;;;;;;4.40;3.25;;;24.30;99.90;;;;;;10453484;28;20640;-86
2023/09/06 12:02:01;;;;;;;5.90;4.03;;;24.40;99.90;;;;;;10451471;28;20311;-86
2023/09/06 12:07:07;;;;;;;5.65;3.53;;;24.40;99.90;;;;;;10450835;28;20207;-86
2023/09/06 12:12:10;;;;;;;9.68;4.03;;;24.40;99.90;;;;;;10450623;28;20219;-86
2023/09/06 12:17:14;;;;;;;7.93;3.90;;;24.40;99.90;;;;;;10434409;28;20207;-86
2023/09/06 12:22:17;;;;;;;4.25;3.63;;;24.50;99.90;;;;;;10449259;28;20254;-86
2023/09/06 12:27:22;;;;;;;5.47;3.33;;;24.50;99.90;;;;;;10450825;28;20265;-86
2023/09/06 12:32:24;;;;;;;9.95;3.72;;;24.60;99.90;;;;;;10451902;28;20199;-87
2023/09/06 12:37:27;;;;;;;5.57;3.20;;;24.70;99.90;;;;;;10450504;28;20206;-86
2023/09/06 12:42:29;;;;;;;6.63;3.78;;;24.70;99.90;;;;;;10450155;28;20303;-86
2023/09/06 12:47:32;;;;;;;8.20;3.70;;;24.70;99.90;;;;;;10450192;28;20284;-86
2023/09/06 12:52:35;;;;;;;4.50;3.38;;;24.70;99.90;;;;;;10449442;28;20262;-86
2023/09/06 12:57:38;;;;;;;3.90;3.13;;;24.70;99.90;;;;;;10449412;28;20234;-87
2023/09/06 13:02:41;;;;;;;6.60;3.45;;;24.80;99.90;;;;;;10449980;28;20252;-87
2023/09/06 13:07:43;;;;;;;9.05;3.67;;;24.70;99.90;;;;;;10099914;28;10000178;-86
2023/09/06 13:12:46;;;;;;;4.78;3.60;;;24.70;99.90;;;;;;10447498;28;20234;-86
2023/09/06 13:17:48;;;;;;;3.55;3.22;;;24.70;99.90;;;;;;10444890;28;20235;-86
2023/09/06 13:22:51;;;;;;;3.85;3.40;;;24.80;99.90;;;;;;10450724;28;20254;-86
2023/09/06 13:27:54;;;;;;;4.88;3.95;;;24.80;99.90;;;;;;10455440;28;20249;-86
2023/09/06 13:32:56;;;;;;;4.82;3.03;;;24.80;99.90;;;;;;10454341;28;20268;-86
2023/09/06 13:37:59;;;;;;;2.92;2.65;;;24.90;99.90;;;;;;10451856;28;20272;-86
2023/09/06 13:43:01;;;;;;;3.88;3.45;;;25.00;99.90;;;;;;10453653;28;20266;-86
2023/09/06 13:48:04;;;;;;;2.90;2.70;;;25.00;99.90;;;;;;10453116;28;20239;-86
2023/09/06 13:53:07;;;;;;;6.53;3.78;;;24.90;99.90;;;;;;10452426;28;20274;-85
2023/09/06 13:58:10;;;;;;;4.07;3.33;;;25.00;99.90;;;;;;10451034;28;20242;-86
2023/09/06 14:03:14;;;;;;;4.93;3.20;;;25.10;99.90;;;;;;10101996;28;10000518;-86
2023/09/06 15:07:57;;;;;;;8.60;3.47;;;24.80;99.90;;;;;;10401234;23;20538;-85
2023/09/06 15:13:00;;;;;;;4.03;2.28;;;24.80;99.90;;;;;;10254483;29;20210;-84
2023/09/06 15:18:02;;;;;;;4.70;2.33;;;24.70;99.90;;;;;;10250067;28;20557;-86
2023/09/06 15:23:05;;;;;;;3.90;2.78;;;24.80;99.90;;;;;;10246698;28;20242;-85
2023/09/06 15:28:08;;;;;;;5.80;2.75;;;24.80;99.90;;;;;;10232417;29;20238;-85
2023/09/06 15:33:11;;;;;;;3.42;3.13;;;24.80;99.90;;;;;;10248990;29;20222;-85
2023/09/06 15:38:14;;;;;;;2.80;2.30;;;24.70;99.90;;;;;;10248222;29;20305;-85
2023/09/06 15:43:17;;;;;;;3.50;2.92;;;24.70;99.90;;;;;;10237869;28;20270;-85
2023/09/06 15:48:19;;;;;;;5.63;3.17;;;24.70;99.90;;;;;;10233909;28;20559;-85
2023/09/06 15:53:22;;;;;;;3.88;2.88;;;24.60;99.90;;;;;;10231455;29;20605;-84
2023/09/06 15:58:25;;;;;;;3.03;2.75;;;24.50;99.90;;;;;;10248223;29;20242;-85
2023/09/06 16:03:27;;;;;;;4.65;2.80;;;24.50;99.90;;;;;;10243360;29;20290;-86
2023/09/06 16:08:47;;;;;;;3.75;2.85;;;24.40;99.90;;;;;;10245555;29;20790;-85
2023/09/06 16:13:49;;;;;;;2.85;2.45;;;24.30;99.90;;;;;;10246700;29;20351;-85
2023/09/06 16:18:52;;;;;;;3.03;2.72;;;24.20;99.90;;;;;;10246224;29;20237;-85
2023/09/06 16:23:56;;;;;;;2.72;2.22;;;24.10;99.90;;;;;;10246360;29;20261;-86
2023/09/06 16:28:59;;;;;;;2.63;2.42;;;24.00;99.90;;;;;;10240495;29;20293;-86
2023/09/06 16:34:03;;;;;;;6.82;3.10;;;23.90;99.90;;;;;;10238249;29;20242;-85
2023/09/06 16:39:08;;;;;;;3.30;2.40;;;23.70;99.90;;;;;;10246441;28;20261;-86
2023/09/06 16:44:11;;;;;;;3.10;2.55;;;23.60;99.90;;;;;;10245795;29;20877;-86
2023/09/06 16:49:14;;;;;;;3.30;3.00;;;23.40;99.90;;;;;;10228704;29;20313;-85
2023/09/06 16:54:18;;;;;;;6.13;2.78;;;23.20;99.90;;;;;;10229432;28;20226;-86
2023/09/06 16:59:20;;;;;;;2.75;2.53;;;23.00;99.90;;;;;;10244880;29;20242;-86
2023/09/06 17:04:23;;;;;;;4.47;2.63;;;22.70;99.90;;;;;;10226628;28;20262;-85
2023/09/06 17:09:27;;;;;;;3.10;2.70;;;22.40;99.90;;;;;;9897195;28;10000470;-86
2023/09/06 17:14:33;;;;;;;3.10;2.35;;;22.10;99.90;;;;;;10243766;29;20234;-85
2023/09/06 17:19:35;;;;;;;6.25;3.17;;;21.80;99.90;;;;;;10238521;29;20629;-85
2023/09/06 17:24:38;;;;;;;8.38;3.22;;;21.50;99.90;;;;;;9882325;29;9999829;-85
2023/09/06 17:29:44;;;;;;;6.53;2.90;;;21.30;99.90;;;;;;10239792;29;20297;-85
2023/09/06 17:34:46;;;;;;;7.90;2.70;;;21.00;99.90;;;;;;10217508;29;20239;-84
2023/09/06 17:39:49;;;;;;;6.60;3.00;;;20.60;99.90;;;;;;10238706;29;20242;-85
2023/09/06 17:44:57;;;;;;;5.15;2.95;;;20.40;99.90;;;;;;10222613;29;20242;-85
2023/09/06 17:50:00;;;;;;;5.03;3.22;;;20.10;99.90;;;;;;10223249;29;20635;-85
2023/09/06 17:55:06;;;;;;;9.27;3.40;;;19.90;99.90;;;;;;10237643;29;20359;-85
2023/09/06 18:00:15;;;;;;;9.50;3.17;;;19.70;99.90;;;;;;10239063;29;20265;-85
2023/09/06 18:05:19;;;;;;;14.32;3.72;;;19.60;99.90;;;;;;10237811;28;20365;-85
2023/09/06 18:10:22;;;;;;;9.38;3.80;;;19.40;99.90;;;;;;10247991;29;20699;-85
2023/09/06 18:15:25;;;;;;;11.52;3.53;;;19.20;99.90;;;;;;10250919;29;20630;-86
2023/09/06 18:20:28;;;;;;;17.13;4.45;;;19.00;99.90;;;;;;10249433;28;20838;-85
2023/09/06 18:25:31;;;;;;;12.60;3.88;;;18.90;99.90;;;;;;10224577;29;20645;-85
2023/09/06 18:30:37;;;;;;;8.20;4.10;;;18.70;99.90;;;;;;10210779;29;20708;-85
2023/09/06 18:35:39;;;;;;;8.13;3.67;;;18.60;99.90;;;;;;10216503;29;20253;-85
2023/09/06 18:40:43;;;;;;;6.35;3.10;;;18.50;99.90;;;;;;10230216;29;20258;-85
2023/09/06 18:45:46;;;;;;;6.28;3.38;;;18.50;99.90;;;;;;10227375;29;20350;-85
2023/09/06 18:50:49;;;;;;;5.90;3.85;;;18.30;99.90;;;;;;10230572;28;20254;-85
2023/09/06 18:55:53;;;;;;;8.07;4.05;;;18.20;99.90;;;;;;10248224;29;20690;-85
2023/09/06 19:00:56;;;;;;;6.35;4.00;;;18.00;99.90;;;;;;10248286;29;20262;-85
2023/09/06 19:05:59;;;;;;;6.22;3.35;;;17.90;99.90;;;;;;10246494;29;20784;-85
2023/09/06 19:11:01;;;;;;;5.97;4.47;;;17.90;99.90;;;;;;9887859;29;10000398;-85
2023/09/06 19:16:04;;;;;;;9.23;4.93;;;17.80;99.90;;;;;;10226169;29;20245;-85
2023/09/06 19:21:07;;;;;;;10.07;4.45;;;17.60;99.90;;;;;;10225548;28;20316;-86
2023/09/06 19:26:10;;;;;;;13.02;5.90;;;17.50;99.90;;;;;;10243382;29;20661;-85
2023/09/06 19:31:12;;;;;;;13.02;6.25;;;17.50;99.90;;;;;;10243314;29;20250;-85
2023/09/06 19:36:16;;;;;;;14.80;5.93;;;17.40;99.90;;;;;;10226377;28;20250;-84
2023/09/06 19:41:18;;;;;;;11.43;4.90;;;17.20;99.90;;;;;;10226669;28;20332;-85
2023/09/06 19:46:21;;;;;;;16.23;6.30;;;17.20;99.90;;;;;;10231632;29;20234;-84
2023/09/06 19:51:23;;;;;;;9.43;4.93;;;17.10;99.90;;;;;;10204816;28;20680;-85
2023/09/06 19:56:26;;;;;;;11.10;5.53;;;17.00;99.90;;;;;;10240751;29;20304;-85
2023/09/06 20:01:31;;;;;;;11.77;4.95;;;17.00;99.90;;;;;;10239810;29;20317;-85
2023/09/06 20:06:34;;;;;;;12.80;5.20;;;16.90;99.90;;;;;;10224974;28;20266;-85
2023/09/06 20:11:37;;;;;;;9.43;5.95;;;16.70;99.90;;;;;;10240006;29;20691;-85
2023/09/06 20:16:40;;;;;;;12.18;5.45;;;16.60;99.90;;;;;;10242199;29;20326;-85
2023/09/06 20:21:42;;;;;;;7.45;4.72;;;16.50;99.90;;;;;;10213893;28;20379;-84
2023/09/06 20:26:46;;;;;;;11.68;6.07;;;16.40;99.90;;;;;;10212678;29;20206;-84
2023/09/06 20:31:49;;;;;;;9.48;4.70;;;16.30;99.90;;;;;;10243751;28;20273;-84
2023/09/06 20:36:51;;;;;;;18.77;6.82;;;16.30;99.90;;;;;;10228462;29;20773;-84
2023/09/06 20:41:54;;;;;;;16.25;6.10;;;16.20;99.90;;;;;;10244713;29;20262;-85
2023/09/06 20:47:00;;;;;;;12.98;6.78;;;16.10;99.90;;;;;;10242760;29;20313;-85
2023/09/06 20:52:03;;;;;;;10.27;5.43;;;16.10;99.90;;;;;;10224419;29;20246;-85
2023/09/06 20:57:05;;;;;;;6.45;4.47;;;16.10;99.90;;;;;;10227276;29;20690;-85
2023/09/06 21:02:08;;;;;;;13.18;6.25;;;16.00;99.90;;;;;;10244485;29;20261;-85
2023/09/06 21:07:11;;;;;;;6.90;5.03;;;16.00;99.90;;;;;;10243542;29;20253;-85
2023/09/06 21:12:13;;;;;;;8.82;5.45;;;15.90;99.90;;;;;;10193609;29;20646;-85
2023/09/06 21:17:16;;;;;;;8.95;5.95;;;15.80;99.90;;;;;;10232539;29;20246;-85
2023/09/06 21:22:18;;;;;;;16.05;5.15;;;15.60;99.90;;;;;;10244461;28;20650;-85
2023/09/06 21:27:21;;;;;;;9.18;5.18;;;15.50;99.90;;;;;;10234347;29;20238;-84
2023/09/06 21:32:23;;;;;;;17.67;5.50;;;15.50;99.90;;;;;;10221550;29;20262;-85
2023/09/06 21:37:26;;;;;;;8.65;4.63;;;15.50;99.90;;;;;;10236266;28;20250;-84
2023/09/06 21:42:28;;;;;;;10.23;4.90;;;15.40;99.90;;;;;;10246504;28;20735;-85
2023/09/06 21:47:31;;;;;;;4.82;4.38;;;15.40;99.90;;;;;;10251756;29;20323;-84
2023/09/06 21:52:34;;;;;;;6.43;4.30;;;15.40;99.90;;;;;;10249884;29;20254;-84
2023/09/06 21:57:36;;;;;;;9.27;5.45;;;15.50;99.90;;;;;;10250069;29;20260;-84
2023/09/06 22:02:39;;;;;;;10.63;5.53;;;15.40;99.90;;;;;;10232662;29;20297;-84
2023/09/06 22:08:00;;;;;;;10.73;5.25;;;15.30;99.90;;;;;;10251792;28;20727;-85
2023/09/06 22:13:21;;;;;;;10.43;4.40;;;15.20;99.90;;;;;;10252510;28;20242;-84
2023/09/06 22:18:23;;;;;;;9.73;5.03;;;15.20;99.90;;;;;;10233637;29;20731;-84
2023/09/06 22:23:26;;;;;;;5.82;4.70;;;15.40;99.90;;;;;;10250605;28;20328;-84
2023/09/06 22:28:31;;;;;;;7.47;4.60;;;15.20;99.90;;;;;;10255859;28;20229;-84
2023/09/06 22:33:34;;;;;;;8.15;4.50;;;15.10;99.90;;;;;;10269443;28;20260;-84
2023/09/06 22:38:37;;;;;;;7.28;5.20;;;15.10;99.90;;;;;;10273923;28;20852;-84
2023/09/06 22:43:40;;;;;;;10.23;6.32;;;15.00;99.90;;;;;;10224138;29;20287;-84
2023/09/06 22:48:42;;;;;;;6.90;5.10;;;15.00;99.90;;;;;;10251570;29;20242;-84
2023/09/06 22:53:56;;;;;;;5.97;4.30;;;15.10;99.90;;;;;;10250523;28;20840;-85
2023/09/06 22:58:58;;;;;;;8.57;5.43;;;15.10;99.90;;;;;;10250496;29;20683;-84
2023/09/06 23:04:01;;;;;;;8.63;5.97;;;15.30;99.90;;;;;;10249403;29;20336;-85
2023/09/06 23:09:07;;;;;;;6.07;4.03;;;15.40;99.90;;;;;;10249623;29;20655;-85
2023/09/06 23:14:13;;;;;;;9.30;5.40;;;15.20;99.90;;;;;;10250288;29;20245;-84
2023/09/06 23:19:20;;;;;;;6.38;5.78;;;15.20;99.90;;;;;;10248926;29;20246;-84
2023/09/06 23:24:23;;;;;;;6.55;5.47;;;15.00;99.90;;;;;;10249480;29;20714;-85
2023/09/06 23:29:34;;;;;;;6.13;5.15;;;14.90;99.90;;;;;;10248535;29;20234;-84
2023/09/06 23:34:37;;;;;;;6.25;4.82;;;15.00;99.90;;;;;;10231933;29;20245;-84
2023/09/06 23:39:44;;;;;;;7.60;5.82;;;15.10;99.90;;;;;;10248618;29;20249;-84
2023/09/06 23:44:46;;;;;;;8.73;6.70;;;15.00;99.90;;;;;;10230144;29;20278;-84
2023/09/06 23:49:49;;;;;;;4.90;4.40;;;14.80;99.90;;;;;;10247820;28;20371;-84
2023/09/06 23:54:52;;;;;;;8.25;5.88;;;14.90;99.90;;;;;;10247720;29;20270;-84
2023/09/06 23:59:54;;;;;;;4.57;3.80;;;15.00;99.90;;;;;;10246809;29;20246;-85
